Time;durP1;ratioP1;P1;durP2;ratioP2;P2;SDS_P1;SDS_P2;PMS_P1;PMS_P2;Temp;Humidity;BMP_temperature;BMP_pressure;BME280_temperature;BME280_humidity;BME280_pressure;Samples;Min_cycle;Max_cycle;Signal;HPM_P1;HPM_P2
2023/12/27 00:00:42;;;;;;;40.38;36.63;;;9.90;1.00;;;;;;4946553;29;20133;-75
2023/12/27 00:03:07;;;;;;;42.60;38.15;;;11.80;1.00;;;;;;4945678;29;20035;-75
2023/12/27 00:05:33;;;;;;;42.75;38.53;;;10.50;1.00;;;;;;4945967;29;20693;-76
2023/12/27 00:07:58;;;;;;;45.75;41.28;;;11.20;22.00;;;;;;4945712;29;20135;-76
2023/12/27 00:10:24;;;;;;;43.85;39.53;;;10.40;99.90;;;;;;4945426;29;20047;-76
2023/12/27 00:12:50;;;;;;;43.70;39.63;;;10.20;99.90;;;;;;4945957;29;20097;-75
2023/12/27 00:15:15;;;;;;;43.83;39.53;;;10.90;99.90;;;;;;4946501;29;20201;-75
2023/12/27 00:17:41;;;;;;;41.50;38.00;;;10.50;99.90;;;;;;4945946;28;20058;-74
2023/12/27 00:20:07;;;;;;;42.92;39.35;;;10.80;99.90;;;;;;4946528;29;20079;-76
2023/12/27 00:22:33;;;;;;;45.20;40.60;;;10.30;99.90;;;;;;4946204;29;20051;-75
2023/12/27 00:24:59;;;;;;;43.88;39.90;;;10.40;99.90;;;;;;4946358;29;20043;-75
2023/12/27 00:27:25;;;;;;;43.75;39.72;;;10.90;1.00;;;;;;4946776;29;20501;-75
2023/12/27 00:29:50;;;;;;;37.80;34.58;;;10.80;1.00;;;;;;4947681;29;20102;-75
2023/12/27 00:32:16;;;;;;;43.38;39.03;;;10.30;1.00;;;;;;4946637;29;20039;-76
2023/12/27 00:34:41;;;;;;;39.28;35.55;;;10.30;1.00;;;;;;4945365;29;20510;-75
2023/12/27 00:37:09;;;;;;;41.85;38.00;;;10.20;1.00;;;;;;4945765;28;20776;-76
2023/12/27 00:39:34;;;;;;;41.63;37.90;;;10.20;1.00;;;;;;4945821;29;20050;-76
2023/12/27 00:42:00;;;;;;;38.53;35.35;;;10.20;1.00;;;;;;4945414;29;20035;-75
2023/12/27 00:44:25;;;;;;;40.95;37.67;;;9.90;1.00;;;;;;4929624;29;20121;-75
2023/12/27 00:46:51;;;;;;;40.25;36.75;;;9.60;1.00;;;;;;4945514;29;20053;-75
2023/12/27 00:49:17;;;;;;;39.28;35.97;;;9.90;1.00;;;;;;4945761;29;20130;-75
2023/12/27 00:51:43;;;;;;;35.30;32.45;;;9.90;1.00;;;;;;4946809;28;20047;-76
2023/12/27 00:54:09;;;;;;;34.45;31.63;;;9.80;11.60;;;;;;4948639;29;20078;-75
2023/12/27 00:56:35;;;;;;;36.92;33.40;;;9.10;64.40;;;;;;4933295;29;20047;-76
2023/12/27 00:59:01;;;;;;;38.42;34.67;;;9.50;99.20;;;;;;4948883;29;20058;-75
2023/12/27 01:01:29;;;;;;;35.45;32.15;;;9.30;99.90;;;;;;4949222;29;20050;-75
2023/12/27 01:03:55;;;;;;;35.40;32.03;;;10.30;99.90;;;;;;4948958;29;20051;-75
2023/12/27 01:06:21;;;;;;;39.05;35.47;;;9.90;99.90;;;;;;4948688;29;20425;-75
2023/12/27 01:08:47;;;;;;;37.15;34.05;;;9.30;99.90;;;;;;4948868;29;20567;-75
2023/12/27 01:11:13;;;;;;;38.50;35.15;;;9.40;99.90;;;;;;4948175;29;20046;-75
2023/12/27 01:13:38;;;;;;;37.47;34.08;;;9.70;99.90;;;;;;4948624;29;20456;-74
2023/12/27 01:16:04;;;;;;;38.25;35.00;;;9.80;99.90;;;;;;4948758;29;20070;-74
2023/12/27 01:18:29;;;;;;;39.70;35.88;;;9.30;99.90;;;;;;4948424;28;20076;-74
2023/12/27 01:20:55;;;;;;;39.28;36.10;;;9.30;1.00;;;;;;4948453;29;20133;-75
2023/12/27 01:23:21;;;;;;;37.05;33.42;;;9.30;1.00;;;;;;4932452;29;20051;-75
2023/12/27 01:25:46;;;;;;;36.60;33.45;;;9.30;1.00;;;;;;4948743;29;20051;-75
2023/12/27 01:28:12;;;;;;;37.00;33.88;;;9.80;1.00;;;;;;4948127;29;20501;-75
2023/12/27 01:30:37;;;;;;;36.95;33.83;;;9.70;1.00;;;;;;4948848;29;20051;-75
2023/12/27 01:33:03;;;;;;;34.78;31.83;;;9.70;1.00;;;;;;4948058;29;20043;-75
2023/12/27 01:35:28;;;;;;;37.85;33.88;;;9.70;1.00;;;;;;4948654;29;20146;-75
2023/12/27 01:37:54;;;;;;;35.65;32.20;;;9.10;1.00;;;;;;4948363;29;20047;-75
2023/12/27 01:40:20;;;;;;;37.28;33.67;;;9.60;2.80;;;;;;4948313;29;20043;-76
2023/12/27 01:42:45;;;;;;;1999.90;209.25;;;9.50;36.30;;;;;;4948048;29;20047;-75
2023/12/27 01:45:11;;;;;;;32.55;29.58;;;9.60;99.90;;;;;;4948204;29;20039;-75
2023/12/27 01:47:37;;;;;;;33.30;30.75;;;9.80;99.90;;;;;;4948038;29;20130;-75
2023/12/27 01:50:09;;;;;;;34.05;30.58;;;9.30;99.90;;;;;;4932378;29;20083;-75
2023/12/27 01:52:36;;;;;;;34.05;30.63;;;9.90;99.90;;;;;;4947866;29;20062;-75
2023/12/27 01:55:02;;;;;;;34.17;30.52;;;10.00;99.90;;;;;;4947560;29;20745;-74
2023/12/27 01:57:28;;;;;;;33.97;31.40;;;9.90;99.90;;;;;;4947964;29;20134;-75
2023/12/27 01:59:54;;;;;;;34.55;31.50;;;9.40;99.90;;;;;;4947966;29;20129;-74
2023/12/27 02:02:19;;;;;;;36.05;32.92;;;9.30;99.90;;;;;;4931578;28;20087;-75
2023/12/27 02:04:45;;;;;;;35.03;31.85;;;9.20;99.90;;;;;;4946391;29;20079;-75
2023/12/27 02:07:11;;;;;;;33.13;30.23;;;9.90;99.90;;;;;;4948078;29;20047;-75
2023/12/27 02:09:37;;;;;;;32.15;29.23;;;9.30;99.90;;;;;;4931852;29;20466;-75
2023/12/27 02:12:03;;;;;;;35.45;31.75;;;9.60;99.90;;;;;;4948101;29;20382;-75
2023/12/27 02:14:28;;;;;;;33.35;29.45;;;9.60;99.90;;;;;;4947300;29;20053;-75
2023/12/27 02:16:54;;;;;;;33.28;29.83;;;9.70;99.90;;;;;;4948052;29;20395;-75
2023/12/27 02:19:21;;;;;;;34.25;31.02;;;9.70;99.90;;;;;;4947398;28;20055;-75
2023/12/27 02:21:49;;;;;;;34.35;31.00;;;9.30;99.90;;;;;;4946822;29;20046;-76
2023/12/27 02:24:17;;;;;;;53.33;31.52;;;9.50;99.90;;;;;;4946861;29;20043;-75
2023/12/27 02:26:43;;;;;;;32.85;29.75;;;9.70;99.90;;;;;;4947496;29;20058;-74
2023/12/27 02:29:09;;;;;;;36.05;32.50;;;9.10;99.90;;;;;;4947094;29;20051;-75
2023/12/27 02:31:34;;;;;;;36.85;32.42;;;9.20;99.90;;;;;;4947455;29;20133;-75
2023/12/27 02:34:00;;;;;;;33.17;29.95;;;9.40;99.90;;;;;;4947302;29;20046;-75
2023/12/27 02:36:25;;;;;;;35.92;32.78;;;9.70;99.90;;;;;;4947706;29;20424;-75
2023/12/27 02:38:51;;;;;;;36.75;33.42;;;9.60;99.90;;;;;;4947186;29;20386;-74
2023/12/27 02:41:16;;;;;;;35.13;31.75;;;9.30;99.90;;;;;;4946941;29;20501;-74
2023/12/27 02:43:42;;;;;;;34.22;30.75;;;9.00;99.90;;;;;;4947296;29;20701;-74
2023/12/27 02:46:08;;;;;;;35.47;31.45;;;9.50;99.90;;;;;;4947378;29;20078;-74
2023/12/27 02:48:33;;;;;;;35.60;32.03;;;9.30;99.90;;;;;;4947150;29;20047;-75
2023/12/27 02:50:59;;;;;;;33.25;30.35;;;9.80;99.90;;;;;;4946803;29;20051;-73
2023/12/27 02:53:24;;;;;;;35.42;32.53;;;9.20;99.90;;;;;;4947523;29;20502;-75
2023/12/27 02:55:50;;;;;;;31.85;29.17;;;9.10;99.90;;;;;;4947006;29;20527;-74
2023/12/27 02:58:15;;;;;;;39.65;31.42;;;8.90;99.90;;;;;;4946945;29;20097;-75
2023/12/27 03:00:43;;;;;;;38.47;29.85;;;7.90;99.90;;;;;;4946753;29;20113;-73
2023/12/27 03:03:08;;;;;;;35.80;31.08;;;8.30;99.90;;;;;;4947529;28;20043;-74
2023/12/27 03:05:34;;;;;;;34.75;29.30;;;8.80;99.90;;;;;;4947028;29;20051;-75
2023/12/27 03:07:59;;;;;;;33.95;30.80;;;9.10;99.90;;;;;;4946796;29;20047;-75
2023/12/27 03:10:25;;;;;;;33.47;30.67;;;9.00;99.90;;;;;;4946671;29;20514;-74
2023/12/27 03:12:50;;;;;;;32.63;29.73;;;9.20;99.90;;;;;;4947085;29;20163;-74
2023/12/27 03:15:16;;;;;;;34.90;31.70;;;9.70;99.90;;;;;;4946364;28;20084;-74
2023/12/27 03:17:41;;;;;;;32.92;29.80;;;9.10;99.90;;;;;;4930664;28;20054;-74
2023/12/27 03:20:08;;;;;;;40.22;31.60;;;9.10;99.90;;;;;;4946583;29;20043;-74
2023/12/27 03:22:33;;;;;;;42.45;32.08;;;9.60;99.90;;;;;;4946629;29;20054;-74
2023/12/27 03:24:59;;;;;;;32.67;29.58;;;9.40;99.90;;;;;;4946245;29;20043;-75
2023/12/27 03:27:24;;;;;;;34.78;30.80;;;7.90;99.90;;;;;;4930646;29;20425;-75
2023/12/27 03:29:50;;;;;;;569.35;48.33;;;7.80;99.90;;;;;;4946109;29;20146;-74
2023/12/27 03:32:15;;;;;;;29.85;26.83;;;8.70;99.90;;;;;;4945896;29;20063;-74
2023/12/27 03:34:41;;;;;;;28.50;25.60;;;9.50;99.90;;;;;;4945512;29;20058;-74
2023/12/27 03:37:06;;;;;;;33.13;27.15;;;9.70;99.90;;;;;;4946370;29;20066;-74
2023/12/27 03:39:32;;;;;;;28.98;26.58;;;9.50;99.90;;;;;;4930563;29;20466;-74
2023/12/27 03:41:57;;;;;;;30.27;27.30;;;9.30;99.90;;;;;;4946226;29;20055;-74
2023/12/27 03:44:23;;;;;;;32.83;29.58;;;9.50;99.90;;;;;;4946058;29;20043;-74
2023/12/27 03:46:48;;;;;;;36.97;29.52;;;8.80;99.90;;;;;;4946188;29;20411;-74
2023/12/27 03:49:14;;;;;;;31.10;27.95;;;9.50;99.90;;;;;;4945616;29;20039;-74
2023/12/27 03:51:40;;;;;;;33.20;29.77;;;9.20;99.90;;;;;;4945848;28;20082;-74
2023/12/27 03:54:05;;;;;;;33.92;30.20;;;9.30;99.90;;;;;;4947116;29;20374;-74
2023/12/27 03:56:31;;;;;;;32.70;29.33;;;9.30;99.90;;;;;;4946698;29;20051;-74
2023/12/27 03:58:56;;;;;;;31.92;28.35;;;9.10;99.90;;;;;;4946550;29;20039;-74
2023/12/27 04:01:22;;;;;;;27.83;25.23;;;9.70;99.90;;;;;;4945526;29;20413;-73
2023/12/27 04:03:48;;;;;;;30.05;27.25;;;9.40;99.90;;;;;;4945607;29;20571;-75
2023/12/27 04:06:19;;;;;;;33.95;30.20;;;9.10;99.90;;;;;;4945458;29;20556;-74
2023/12/27 04:08:46;;;;;;;33.38;29.52;;;9.20;99.90;;;;;;4945791;29;20084;-74
2023/12/27 04:11:12;;;;;;;32.10;29.30;;;9.90;99.90;;;;;;4961787;28;20256;-74
2023/12/27 04:13:37;;;;;;;32.20;29.02;;;9.40;99.90;;;;;;4946036;29;20572;-75
2023/12/27 04:16:03;;;;;;;39.00;29.50;;;10.00;99.90;;;;;;4945616;29;20047;-75
2023/12/27 04:18:29;;;;;;;35.30;28.98;;;9.30;99.90;;;;;;4945147;28;20055;-75
2023/12/27 04:20:54;;;;;;;36.80;29.80;;;10.10;99.90;;;;;;4945513;29;20433;-74
2023/12/27 04:23:20;;;;;;;32.25;29.50;;;9.30;99.90;;;;;;4929816;29;20505;-75
2023/12/27 04:25:45;;;;;;;33.33;30.30;;;9.00;99.90;;;;;;4921042;29;20490;-74
2023/12/27 04:28:11;;;;;;;33.42;29.85;;;8.10;99.90;;;;;;4930368;29;20556;-75
2023/12/27 04:30:36;;;;;;;1045.70;77.10;;;8.20;99.90;;;;;;4930760;29;20047;-74
2023/12/27 04:33:02;;;;;;;33.22;29.00;;;9.20;99.90;;;;;;4948867;29;20046;-75
2023/12/27 04:35:28;;;;;;;30.92;27.98;;;10.20;99.90;;;;;;4934233;29;20097;-75
2023/12/27 04:37:53;;;;;;;34.00;30.20;;;10.30;99.90;;;;;;4949528;29;20083;-75
2023/12/27 04:40:19;;;;;;;33.75;29.70;;;9.60;99.90;;;;;;4949600;29;20043;-74
2023/12/27 04:42:44;;;;;;;32.80;29.90;;;10.50;99.90;;;;;;4948320;29;20446;-74
2023/12/27 04:45:10;;;;;;;34.85;29.05;;;9.90;99.90;;;;;;4949160;29;20122;-75
2023/12/27 04:47:35;;;;;;;39.28;28.42;;;10.60;99.90;;;;;;4949221;28;20039;-75
2023/12/27 04:50:01;;;;;;;30.75;27.58;;;9.90;99.90;;;;;;4948577;29;20049;-75
2023/12/27 04:52:26;;;;;;;32.03;28.88;;;10.10;99.90;;;;;;4949223;29;20517;-74
2023/12/27 04:54:52;;;;;;;32.13;29.13;;;9.70;99.90;;;;;;4949275;29;20427;-74
2023/12/27 04:57:18;;;;;;;32.22;28.98;;;9.70;99.90;;;;;;4949391;29;20478;-75
2023/12/27 04:59:43;;;;;;;31.02;27.85;;;9.70;99.90;;;;;;4949724;29;20043;-75
2023/12/27 05:02:09;;;;;;;33.03;29.50;;;9.80;99.90;;;;;;4933308;29;20043;-74
2023/12/27 05:04:35;;;;;;;31.00;27.88;;;10.30;99.90;;;;;;4948414;29;20075;-75
2023/12/27 05:07:00;;;;;;;29.45;26.40;;;10.40;99.90;;;;;;4948764;29;20051;-75
2023/12/27 05:09:26;;;;;;;33.15;29.88;;;10.70;99.90;;;;;;4949075;29;20047;-76
2023/12/27 05:11:51;;;;;;;33.50;30.17;;;9.90;99.90;;;;;;4949601;29;20492;-75
2023/12/27 05:14:17;;;;;;;34.20;31.02;;;9.80;99.90;;;;;;4948623;29;20050;-74
2023/12/27 05:16:46;;;;;;;32.67;29.45;;;10.60;99.90;;;;;;4933172;29;20047;-75
2023/12/27 05:19:11;;;;;;;32.17;28.92;;;9.70;99.90;;;;;;4932612;29;20126;-75
2023/12/27 05:21:37;;;;;;;34.00;30.10;;;10.60;99.90;;;;;;4948268;29;20134;-75
2023/12/27 05:24:02;;;;;;;34.78;31.33;;;10.60;99.90;;;;;;4948279;29;20042;-75
2023/12/27 05:26:28;;;;;;;33.35;30.30;;;9.80;99.90;;;;;;4948470;29;20082;-75
2023/12/27 05:28:53;;;;;;;34.15;30.58;;;10.20;99.90;;;;;;4949157;29;20055;-74
2023/12/27 05:31:19;;;;;;;35.00;31.38;;;10.20;99.90;;;;;;4948493;28;20126;-75
2023/12/27 05:33:44;;;;;;;37.25;30.45;;;9.70;99.90;;;;;;4947765;29;20094;-75
2023/12/27 05:36:10;;;;;;;1702.20;126.03;;;9.50;99.90;;;;;;4948310;29;20117;-75
2023/12/27 05:38:36;;;;;;;38.17;27.90;;;10.10;99.90;;;;;;4947978;28;20047;-75
2023/12/27 05:41:03;;;;;;;36.95;28.75;;;9.90;99.90;;;;;;4948132;29;20475;-75
2023/12/27 05:43:28;;;;;;;35.15;30.95;;;11.00;99.90;;;;;;4948200;29;20150;-75
2023/12/27 05:45:54;;;;;;;34.80;31.23;;;10.10;99.90;;;;;;4948659;28;20565;-75
2023/12/27 05:48:19;;;;;;;33.42;30.20;;;11.00;99.90;;;;;;4948395;29;20558;-76
2023/12/27 05:50:45;;;;;;;40.15;31.02;;;10.70;99.90;;;;;;4948214;29;20611;-75
2023/12/27 05:53:11;;;;;;;32.45;29.33;;;10.20;99.90;;;;;;4947798;29;20045;-75
2023/12/27 05:55:36;;;;;;;33.25;29.83;;;10.00;99.90;;;;;;4948266;29;20046;-75
2023/12/27 05:58:02;;;;;;;38.15;30.90;;;10.70;99.90;;;;;;4948251;29;20133;-75
2023/12/27 06:00:28;;;;;;;33.75;30.27;;;10.80;99.90;;;;;;4932980;29;20050;-75
2023/12/27 06:02:53;;;;;;;33.60;30.13;;;10.10;99.90;;;;;;4948189;29;20043;-74
2023/12/27 06:05:19;;;;;;;37.67;30.25;;;10.60;99.90;;;;;;4947873;29;20047;-75
2023/12/27 06:07:46;;;;;;;31.70;28.60;;;10.20;99.90;;;;;;4948540;29;20051;-75
2023/12/27 06:10:12;;;;;;;35.60;28.80;;;10.70;99.90;;;;;;4948140;29;20513;-75
2023/12/27 06:12:37;;;;;;;35.60;28.17;;;10.50;99.90;;;;;;4944958;29;20050;-75
2023/12/27 06:15:03;;;;;;;33.55;29.25;;;11.00;99.90;;;;;;4940350;29;20173;-76
2023/12/27 06:17:29;;;;;;;34.90;31.60;;;10.30;99.90;;;;;;4934494;28;20160;-75
2023/12/27 06:19:54;;;;;;;34.40;30.45;;;11.30;99.90;;;;;;4927707;29;20828;-75
2023/12/27 06:22:20;;;;;;;35.40;30.98;;;10.60;99.90;;;;;;4927263;29;20043;-75
2023/12/27 06:24:45;;;;;;;35.20;29.35;;;11.90;99.90;;;;;;4944825;28;20036;-75
2023/12/27 06:27:12;;;;;;;32.92;29.50;;;10.80;99.90;;;;;;4945532;29;20050;-75
2023/12/27 06:29:39;;;;;;;31.58;28.38;;;11.30;99.90;;;;;;4947615;29;20070;-75
2023/12/27 06:32:05;;;;;;;33.72;30.08;;;11.00;99.90;;;;;;4946857;29;20073;-75
2023/12/27 06:34:30;;;;;;;35.05;30.80;;;10.30;99.90;;;;;;4962022;28;20047;-75
2023/12/27 06:36:56;;;;;;;33.10;29.67;;;11.10;99.90;;;;;;4945564;29;20094;-75
2023/12/27 06:39:22;;;;;;;30.50;27.52;;;10.90;99.90;;;;;;4947750;28;20797;-75
2023/12/27 06:41:48;;;;;;;34.63;29.13;;;10.20;99.90;;;;;;4945367;29;20047;-75
2023/12/27 06:44:13;;;;;;;31.55;28.05;;;10.20;99.90;;;;;;4945979;29;20173;-75
2023/12/27 06:46:39;;;;;;;37.67;27.52;;;11.60;99.90;;;;;;4946972;29;20047;-75
2023/12/27 06:49:04;;;;;;;32.85;29.65;;;10.50;99.90;;;;;;4930618;29;20073;-76
2023/12/27 06:51:30;;;;;;;35.33;30.48;;;10.90;99.90;;;;;;4946258;29;20457;-75
2023/12/27 06:53:56;;;;;;;40.92;29.00;;;10.70;99.90;;;;;;4944728;29;20043;-75
2023/12/27 06:56:21;;;;;;;35.30;29.83;;;11.80;99.90;;;;;;4946955;29;20035;-76
2023/12/27 06:58:47;;;;;;;32.15;29.00;;;12.20;99.90;;;;;;4947044;29;20043;-76
2023/12/27 07:01:14;;;;;;;31.02;27.73;;;10.80;99.90;;;;;;4929982;29;20035;-76
2023/12/27 07:03:40;;;;;;;36.83;29.60;;;11.40;99.90;;;;;;4946476;29;20047;-75
2023/12/27 07:06:06;;;;;;;36.47;31.10;;;10.80;99.90;;;;;;4930967;29;20465;-76
2023/12/27 07:08:32;;;;;;;34.38;30.58;;;10.80;99.90;;;;;;4946953;29;20134;-76
2023/12/27 07:10:57;;;;;;;36.22;31.75;;;11.70;99.90;;;;;;4944358;29;20035;-75
2023/12/27 07:13:23;;;;;;;32.15;28.98;;;10.70;99.90;;;;;;4944291;29;20105;-76
2023/12/27 07:15:48;;;;;;;34.33;30.60;;;10.60;99.90;;;;;;4946698;29;20043;-76
2023/12/27 07:18:14;;;;;;;44.25;36.40;;;10.50;99.90;;;;;;4942100;28;20062;-76
2023/12/27 07:20:39;;;;;;;34.95;31.13;;;10.80;99.90;;;;;;4941945;28;20389;-74
2023/12/27 07:23:05;;;;;;;32.55;29.23;;;11.20;99.90;;;;;;4930308;29;20042;-76
2023/12/27 07:25:31;;;;;;;33.15;29.33;;;10.60;99.90;;;;;;4945446;29;20037;-74
2023/12/27 07:27:56;;;;;;;37.25;28.15;;;11.30;99.90;;;;;;4945829;29;20569;-74
2023/12/27 07:30:22;;;;;;;34.15;30.92;;;11.60;99.90;;;;;;4943663;29;20102;-75
2023/12/27 07:32:47;;;;;;;30.13;27.50;;;11.80;99.90;;;;;;4944073;29;20138;-75
2023/12/27 07:35:13;;;;;;;39.22;28.73;;;11.80;99.90;;;;;;4950793;28;20047;-77
2023/12/27 07:37:40;;;;;;;30.60;27.73;;;10.70;99.90;;;;;;4943259;29;20078;-76
2023/12/27 07:40:06;;;;;;;31.15;27.83;;;11.90;99.90;;;;;;4925395;28;20916;-77
2023/12/27 07:42:32;;;;;;;31.23;27.70;;;10.80;99.90;;;;;;4926094;29;20398;-77
2023/12/27 07:44:57;;;;;;;31.52;28.02;;;11.90;99.90;;;;;;4940796;29;20451;-77
2023/12/27 07:47:23;;;;;;;30.50;27.45;;;12.00;99.90;;;;;;4944472;29;20118;-73
2023/12/27 07:49:48;;;;;;;31.35;28.08;;;11.90;99.90;;;;;;4940261;28;20561;-77
2023/12/27 07:52:14;;;;;;;30.88;27.83;;;11.10;99.90;;;;;;4929808;29;20058;-75
2023/12/27 07:54:39;;;;;;;33.35;27.08;;;12.00;99.90;;;;;;4944785;29;20051;-77
2023/12/27 07:57:05;;;;;;;30.55;27.25;;;12.00;99.90;;;;;;4928908;29;20129;-75
2023/12/27 07:59:31;;;;;;;30.08;27.17;;;11.00;99.90;;;;;;4935546;29;20047;-78
2023/12/27 08:01:58;;;;;;;44.78;34.83;;;11.00;99.90;;;;;;4942915;29;20114;-77
2023/12/27 08:04:23;;;;;;;32.95;28.00;;;11.80;99.90;;;;;;4948178;29;20058;-77
2023/12/27 08:06:49;;;;;;;32.90;29.65;;;12.00;99.90;;;;;;4945731;29;20426;-78
2023/12/27 08:09:15;;;;;;;32.00;28.65;;;10.90;99.90;;;;;;4944554;29;20043;-77
2023/12/27 08:11:41;;;;;;;32.55;27.77;;;11.70;99.90;;;;;;4935495;29;20051;-78
2023/12/27 08:14:06;;;;;;;27.20;24.80;;;11.00;99.90;;;;;;4949201;29;20054;-77
2023/12/27 08:16:32;;;;;;;44.50;28.92;;;12.00;99.90;;;;;;4929348;29;20046;-77
2023/12/27 08:18:57;;;;;;;34.80;27.85;;;11.00;99.90;;;;;;4945495;28;20540;-78
2023/12/27 08:21:23;;;;;;;32.08;27.70;;;11.80;99.90;;;;;;4926880;29;20071;-78
2023/12/27 08:23:49;;;;;;;32.33;28.27;;;11.00;99.90;;;;;;4949379;29;20055;-77
2023/12/27 08:26:14;;;;;;;29.65;26.65;;;10.90;99.90;;;;;;4948592;29;20234;-78
2023/12/27 08:28:40;;;;;;;33.63;28.30;;;11.20;99.90;;;;;;4946114;29;20058;-77
2023/12/27 08:31:06;;;;;;;30.05;26.95;;;11.80;99.90;;;;;;4945354;29;20054;-79
2023/12/27 08:33:35;;;;;;;36.55;27.95;;;11.20;99.90;;;;;;4945311;29;20048;-78
2023/12/27 08:36:01;;;;;;;31.88;28.73;;;10.90;99.90;;;;;;4948186;29;20073;-78
2023/12/27 08:38:28;;;;;;;31.90;28.75;;;11.20;99.90;;;;;;4944105;29;20048;-78
2023/12/27 08:40:53;;;;;;;30.83;27.60;;;11.70;99.90;;;;;;4945304;29;20047;-78
2023/12/27 08:43:19;;;;;;;29.90;27.17;;;11.80;99.90;;;;;;4946425;29;20039;-77
2023/12/27 08:45:48;;;;;;;29.60;26.70;;;11.70;99.90;;;;;;4941483;28;20118;-77
2023/12/27 08:48:13;;;;;;;31.05;27.05;;;10.90;99.90;;;;;;4931379;28;20054;-76
2023/12/27 08:50:41;;;;;;;28.13;25.63;;;12.10;99.90;;;;;;4935789;29;20527;-77
2023/12/27 08:53:07;;;;;;;33.38;26.65;;;11.40;99.90;;;;;;4948816;29;20091;-74
2023/12/27 08:55:34;;;;;;;43.00;34.80;;;11.30;99.90;;;;;;4948522;28;20051;-77
2023/12/27 08:57:59;;;;;;;30.48;27.15;;;11.10;99.90;;;;;;4948378;29;20043;-76
2023/12/27 09:00:26;;;;;;;34.05;28.25;;;11.80;99.90;;;;;;4945424;29;20063;-77
2023/12/27 09:02:51;;;;;;;29.77;26.95;;;12.00;99.90;;;;;;4949290;29;20102;-77
2023/12/27 09:05:17;;;;;;;30.80;27.33;;;11.80;99.90;;;;;;4931117;29;20043;-76
2023/12/27 09:07:43;;;;;;;30.15;26.77;;;12.20;99.90;;;;;;4944846;29;20047;-76
2023/12/27 09:10:10;;;;;;;31.20;28.08;;;11.40;99.90;;;;;;4941590;29;20051;-76
2023/12/27 09:12:38;;;;;;;30.95;27.60;;;11.60;99.90;;;;;;4932398;29;20465;-76
2023/12/27 09:15:08;;;;;;;29.45;26.30;;;12.00;99.90;;;;;;4930680;29;20139;-76
2023/12/27 09:17:34;;;;;;;29.30;26.10;;;12.30;99.90;;;;;;4946067;28;20110;-76
2023/12/27 09:19:59;;;;;;;31.10;27.98;;;11.10;99.90;;;;;;4937716;29;20039;-73
2023/12/27 09:22:25;;;;;;;38.28;27.35;;;12.20;99.90;;;;;;4919659;28;20710;-75
2023/12/27 09:24:51;;;;;;;30.98;25.55;;;12.20;99.90;;;;;;4940991;29;20073;-76
2023/12/27 09:27:17;;;;;;;29.42;26.52;;;11.20;99.90;;;;;;4931522;29;20081;-74
2023/12/27 09:29:44;;;;;;;39.72;30.67;;;11.10;99.90;;;;;;4947533;29;20047;-76
2023/12/27 09:32:10;;;;;;;37.70;33.65;;;12.80;99.90;;;;;;4933175;29;20055;-75
2023/12/27 09:34:35;;;;;;;27.83;25.02;;;11.40;99.90;;;;;;4948905;29;20548;-76
2023/12/27 09:37:03;;;;;;;25.88;23.20;;;12.00;99.90;;;;;;4947840;29;20051;-76
2023/12/27 09:39:31;;;;;;;28.10;25.45;;;12.30;99.90;;;;;;4947401;29;20074;-76
2023/12/27 09:41:57;;;;;;;27.65;24.45;;;12.30;99.90;;;;;;4930687;29;20047;-75
2023/12/27 09:44:24;;;;;;;27.23;24.30;;;12.40;99.90;;;;;;4948587;29;20748;-78
2023/12/27 09:46:49;;;;;;;32.38;26.60;;;11.30;99.90;;;;;;4932664;29;20047;-76
2023/12/27 09:49:15;;;;;;;29.08;26.23;;;11.30;99.90;;;;;;4939258;29;20089;-76
2023/12/27 09:51:43;;;;;;;38.60;28.42;;;12.30;99.90;;;;;;4948093;29;20074;-76
2023/12/27 09:54:09;;;;;;;28.25;25.40;;;11.20;99.90;;;;;;4948585;29;20464;-76
2023/12/27 09:56:36;;;;;;;33.80;26.13;;;11.80;99.90;;;;;;4932997;29;20051;-76
2023/12/27 09:59:07;;;;;;;30.08;27.08;;;11.90;99.90;;;;;;4948675;29;20075;-76
2023/12/27 10:01:38;;;;;;;34.58;27.08;;;11.40;99.90;;;;;;4945653;29;20043;-76
2023/12/27 10:04:22;;;;;;;28.52;25.48;;;12.60;99.90;;;;;;4948584;29;20589;-77
2023/12/27 10:06:49;;;;;;;36.53;28.02;;;11.80;99.90;;;;;;4946098;29;20035;-76
2023/12/27 10:09:15;;;;;;;37.15;33.08;;;11.50;99.90;;;;;;4948814;29;20051;-77
2023/12/27 10:11:44;;;;;;;39.03;27.17;;;11.70;99.90;;;;;;4931062;29;20050;-76
2023/12/27 10:14:11;;;;;;;30.20;26.88;;;12.30;99.90;;;;;;4937374;29;20047;-77
2023/12/27 10:16:36;;;;;;;29.17;26.17;;;12.80;99.90;;;;;;4936377;29;20183;-77
2023/12/27 10:19:07;;;;;;;28.05;25.13;;;12.70;99.90;;;;;;4946313;28;20856;-76
2023/12/27 10:21:41;;;;;;;29.27;26.38;;;11.50;99.90;;;;;;4937134;29;20043;-77
2023/12/27 10:24:07;;;;;;;27.52;24.63;;;12.80;99.90;;;;;;4954863;28;20105;-78
2023/12/27 10:26:35;;;;;;;27.63;25.23;;;11.70;99.90;;;;;;4939644;29;20436;-77
2023/12/27 10:29:01;;;;;;;30.90;27.70;;;12.50;99.90;;;;;;4945627;29;20528;-78
2023/12/27 10:31:26;;;;;;;41.15;34.60;;;11.60;99.90;;;;;;4945065;29;20040;-77
2023/12/27 10:33:52;;;;;;;32.25;27.70;;;12.40;99.90;;;;;;4930693;29;20043;-76
2023/12/27 10:36:18;;;;;;;29.67;26.48;;;12.00;99.90;;;;;;4944300;29;20043;-75
2023/12/27 10:38:45;;;;;;;26.92;24.25;;;13.10;99.90;;;;;;4947282;29;20049;-75
2023/12/27 10:41:10;;;;;;;29.45;26.48;;;11.60;99.90;;;;;;4929273;29;20106;-76
2023/12/27 10:43:36;;;;;;;28.90;26.05;;;12.00;99.90;;;;;;4947121;29;20038;-76
2023/12/27 10:46:09;;;;;;;38.58;33.17;;;11.70;99.90;;;;;;4931487;29;20477;-76
2023/12/27 10:48:38;;;;;;;40.22;29.13;;;12.30;99.90;;;;;;4947848;29;20051;-76
2023/12/27 10:51:07;;;;;;;30.30;27.40;;;11.60;99.90;;;;;;4944267;29;20047;-76
2023/12/27 10:53:37;;;;;;;31.95;28.10;;;12.20;99.90;;;;;;4927732;29;20053;-75
2023/12/27 10:56:03;;;;;;;33.25;25.30;;;12.90;99.90;;;;;;4961172;28;20781;-75
2023/12/27 10:58:37;;;;;;;47.65;36.47;;;12.30;99.90;;;;;;4947084;29;20043;-76
2023/12/27 11:01:04;;;;;;;31.92;27.00;;;12.00;99.90;;;;;;4937740;29;20711;-76
2023/12/27 11:03:32;;;;;;;33.50;28.17;;;12.60;99.90;;;;;;4945529;29;20505;-77
2023/12/27 11:05:59;;;;;;;33.25;27.15;;;14.20;99.90;;;;;;4931334;29;20046;-77
2023/12/27 11:08:27;;;;;;;33.83;28.95;;;12.80;99.90;;;;;;4947262;29;20039;-78
2023/12/27 11:10:53;;;;;;;29.42;26.70;;;12.90;99.90;;;;;;4941586;29;20039;-79
2023/12/27 11:13:21;;;;;;;31.50;28.30;;;12.20;99.90;;;;;;4946559;28;20509;-78
2023/12/27 11:15:51;;;;;;;30.77;27.60;;;12.60;99.90;;;;;;4946794;29;20047;-78
2023/12/27 11:18:18;;;;;;;32.35;28.92;;;12.40;99.90;;;;;;4946926;28;20509;-77
2023/12/27 11:20:47;;;;;;;35.60;29.73;;;12.60;99.90;;;;;;4947206;28;20094;-77
2023/12/27 11:23:13;;;;;;;32.90;29.42;;;12.10;99.90;;;;;;4946905;28;20047;-77
2023/12/27 11:25:40;;;;;;;42.50;31.58;;;12.00;99.90;;;;;;4930267;29;20142;-77
2023/12/27 11:28:07;;;;;;;34.10;30.83;;;11.80;99.90;;;;;;4945855;28;20122;-77
2023/12/27 11:30:33;;;;;;;40.25;32.15;;;11.80;99.90;;;;;;4946170;29;20050;-77
2023/12/27 11:32:59;;;;;;;39.22;32.53;;;13.30;99.90;;;;;;4946739;29;20540;-76
2023/12/27 11:35:29;;;;;;;46.53;41.35;;;12.20;99.90;;;;;;4946624;28;20043;-76
2023/12/27 11:38:15;;;;;;;37.00;32.30;;;13.30;99.90;;;;;;4944534;29;20043;-76
2023/12/27 11:40:45;;;;;;;38.60;33.33;;;13.20;99.90;;;;;;4939718;29;20074;-76
2023/12/27 11:43:21;;;;;;;31.92;28.75;;;13.40;99.90;;;;;;4941916;29;20043;-75
2023/12/27 11:46:00;;;;;;;;;;;12.00;99.90;;;;;;4933096;29;20128;-76
2023/12/27 11:48:27;;;;;;;45.60;30.70;;;13.00;99.90;;;;;;4942047;29;19965;-76
2023/12/27 11:50:57;;;;;;;40.67;30.65;;;13.60;99.90;;;;;;4929944;29;20333;-76
2023/12/27 11:53:26;;;;;;;47.00;42.20;;;12.40;99.90;;;;;;4945484;29;20058;-76
2023/12/27 11:55:52;;;;;;;36.10;32.28;;;12.50;99.90;;;;;;4943735;29;20075;-76
2023/12/27 11:58:38;;;;;;;33.80;30.35;;;12.10;99.90;;;;;;4945187;29;20100;-77
2023/12/27 12:01:20;;;;;;;56.08;50.40;;;12.10;99.90;;;;;;4930138;29;20130;-76
2023/12/27 12:04:10;;;;;;;39.10;34.90;;;13.60;99.90;;;;;;4944260;29;20050;-76
2023/12/27 12:06:58;;;;;;;38.85;32.60;;;12.60;99.90;;;;;;4944129;29;20051;-76
2023/12/27 12:09:40;;;;;;;39.58;35.65;;;12.90;99.90;;;;;;4942897;29;20421;-76
2023/12/27 12:12:15;;;;;;;40.25;36.05;;;14.10;99.90;;;;;;4942285;29;20089;-76
2023/12/27 12:14:40;;;;;;;37.20;33.53;;;12.50;99.90;;;;;;4928375;29;20089;-76
2023/12/27 12:17:07;;;;;;;42.08;37.60;;;13.80;99.90;;;;;;4943805;29;20844;-75
2023/12/27 12:19:35;;;;;;;37.83;34.13;;;12.30;99.90;;;;;;4955379;28;20060;-77
2023/12/27 12:22:01;;;;;;;36.72;32.97;;;12.60;99.90;;;;;;4942212;29;20043;-77
2023/12/27 12:24:27;;;;;;;51.67;46.50;;;14.00;99.90;;;;;;4945663;29;20035;-77
2023/12/27 12:26:54;;;;;;;50.20;45.38;;;13.00;99.90;;;;;;4945950;29;20432;-76